Sanford, FL (32771)

11:57 PM EST on February 07, 2016 (GMT -0500)
Lake Monroe | | Change Station
CLOSE
Current Station
Personal Weather Station
Location: Sanford, FL
Elevation: 13 ft
Nearby Weather Stations

Elev 13 ft 28.82 °N, 81.32 °W | Updated 8 seconds ago

Clear
Clear
44.1 °F
Feels Like 44 °F
N
0.4
Wind Variable Wind from WSW
Gusts 2.5 mph

Today
High -- | Low -- °F
--% Chance of Precip.
Yesterday
High -- | Low -- °F
Precip. -- in
Pressure 30.08 in
Visibility 10.0 miles
Clouds Clear
Windchill 44 °F
Dew Point 38 °F
Humidity 80%
Rainfall 0.00 in
Snow Depth Not available.
7:10 AM 6:08 PM
Waning Crescent, 0% visible
METAR KSFB 080453Z AUTO 29005KT 10SM CLR 06/02 A3008 RMK AO2 SLP186 T00610022 401500061
Pressure 30.08 in
Visibility 10.0 miles
Clouds Clear
Windchill 44 °F
Dew Point 38 °F
Humidity 80%
Rainfall 0.00 in
Snow Depth Not available.
7:10 AM 6:08 PM
Waning Crescent, 0% visible
METAR KSFB 080453Z AUTO 29005KT 10SM CLR 06/02 A3008 RMK AO2 SLP186 T00610022 401500061

10-Day Weather Forecast

Almanac

Astronomy

Feb. 07, 2016 Rise Set
Actual Time
Civil Twilight
Nautical Twilight
Astronomical Twilight
Moon
Length of Visible Light
Length of Day
Tomorrow will be .
, % of the Moon is Illuminated

Today's Extremes

State Highs State Lows

Community

WunderPhotos

Upload Photos

1,891,382 photos uploaded!

WunderBlog® & News

Nearby

Air Quality

  Air Quality AQ Index Pollutant
Not available.

Snow Depth

Station Depth Elevation

Earthquake Activity

City Distance Mag. Time & Date
Minimum magnitude displayed is 2.5.

Coastal Water Temperatures

Place Temperature

Stations

Nearby Weather Stations

Station Location Temp. Windchill Dew Point Humidity Wind Precip. Elev Updated Type
                   

Watches & Warnings

There are currently no watches in effect.